• Join FlightAware (Why Join?)
  • Login
  • US Flag 
07:12PM EDT


 

Airport Tracker/Info


-or-


 

Live Flight TrackerFlight Track Log ✈ LYM613 ✈ 14-Nov-2013 ✈ KRIL - KAPA

Flight Track Log - Related Links

Times and Time Zones

All times are in EST time to prevent confusion due to time zone crossing. See the LYM613 flight status page for this flight to view local times or setup timezone preferences in your user account.

Time Position Orientation Groundspeed Altitude Reporting Facility
EST Latitude Longitude Course Direction KTS MPH feet Rate Location/Type
06:20PM 39.5261 -107.7403 123° Southeast 2 2 5,500  Level Denver Center
06:21PM 39.5261 -107.7403 123° Southeast 1 1 5,500 480 Level Denver Center
06:22PM 39.5250 -107.6917 92° East 101 116 6,600 1,980 Climbing Denver Center
06:23PM 39.5147 -107.5942 98° East 187 215 9,600 2,640 Climbing Denver Center
06:24PM 39.5097 -107.4953 94° East 257 296 12,100 2,160 Climbing Denver Center
06:25PM 39.5438 -107.0238 105° East  Level Estimated
06:25PM 39.4969 -107.3950 99° East 286 329 14,100  Level Denver Center
06:27PM 39.4828 -107.2669 98° East 315 362 16,300 1,980 Climbing Denver Center
06:28PM 39.4686 -107.1531 99° East 330 380 18,300 1,260 Climbing Denver Center
06:29PM 39.4531 -107.0128 98° East 356 410 19,000 300 Climbing Denver Center
06:30PM 39.4356 -106.8794 100° East 386 444 19,000  Level Denver Center
06:31PM 39.4042 -106.7256 105° East 409 471 19,000  Level Denver Center
06:32PM 39.3739 -106.5811 105° East 414 476 19,000  Level Denver Center
06:33PM 39.3436 -106.4392 105° East 411 473 19,000  Level Denver Center
06:34PM 39.3133 -106.2983 105° East 408 470 19,000  Level Denver Center
06:35PM 39.2778 -106.1372 106° East 406 467 19,000  Level Denver Center
06:36PM 39.2492 -105.9964 105° East 406 467 19,000  Level Denver Center
06:37PM 39.2186 -105.8586 106° East 402 463 19,000  Level Denver Center
06:38PM 39.1589 -105.7403 123° Southeast 404 465 19,000  Level Denver Center
06:39PM 39.0922 -105.6203 126° Southeast 399 459 19,000  Level Denver Center
06:40PM 39.0736 -105.4739 99° East 406 467 19,000 -240 Level Denver Center
06:41PM 39.1608 -105.3869 38° Northeast 394 453 18,600 -900 Descending Denver Center
06:42PM 39.2442 -105.3142 34° Northeast 363 418 17,200 -1,320 Descending Denver Center
06:43PM 39.3111 -105.2350 42° Northeast 324 373 15,900 -1,680 Descending Denver Center
06:44PM 39.3825 -105.1581 40° Northeast 312 359 13,800 -1,980 Descending Denver Center
06:45PM 39.4492 -105.0861 40° Northeast 310 357 11,900 -1,920 Descending Denver Center
06:46PM 39.5189 -105.0114 40° Northeast 304 350 9,900 -1,740 Descending Denver Center
06:47PM 39.5800 -104.9531 36° Northeast 279 321 8,400 -1,140 Descending Denver Center
06:48PM 39.6433 -104.9336 13° North 225 259 7,600 -780 Descending Denver Center
06:49PM 39.6400 -104.8683 94° East 186 214 6,900 -780 Descending Denver Center
06:50PM 39.6008 -104.8522 162° South 140 161 6,100 -540 Descending Denver Center
06:51PM 39.5731 -104.8503 177° South 122 140 5,800 -300 Descending Denver Center
06:53PM 39.5701 -104.8493 67° East  Level Estimated
07:00PM 39.5701 -104.8493 237° Southwest  Level Estimated
07:01PM 39.5701 -104.8493 237° Southwest  Level Estimated